sensor_id;sensor_type;location;lat;lon;timestamp;pressure;altitude;pressure_sealevel;temperature;humidity
26376;BME280;30544;42.196;24.336;2022-12-10T00:01:20;98727.84;;;9.41;97.68
26376;BME280;30544;42.196;24.336;2022-12-10T00:03:49;98727.50;;;9.38;97.88
26376;BME280;30544;42.196;24.336;2022-12-10T00:06:17;98729.31;;;9.65;96.88
26376;BME280;30544;42.196;24.336;2022-12-10T00:08:44;98727.41;;;9.49;96.04
26376;BME280;30544;42.196;24.336;2022-12-10T00:11:14;98729.00;;;9.45;96.31
26376;BME280;30544;42.196;24.336;2022-12-10T00:13:42;98721.69;;;9.56;96.19
26376;BME280;30544;42.196;24.336;2022-12-10T00:16:11;98720.75;;;9.67;96.17
26376;BME280;30544;42.196;24.336;2022-12-10T00:18:38;98707.00;;;9.55;96.12
26376;BME280;30544;42.196;24.336;2022-12-10T00:21:08;98717.34;;;9.60;95.65
26376;BME280;30544;42.196;24.336;2022-12-10T00:23:36;98722.19;;;9.53;95.97
26376;BME280;30544;42.196;24.336;2022-12-10T00:26:03;98716.56;;;9.64;96.83
26376;BME280;30544;42.196;24.336;2022-12-10T00:28:30;98713.44;;;9.78;95.41
26376;BME280;30544;42.196;24.336;2022-12-10T00:31:02;98721.28;;;9.64;96.40
26376;BME280;30544;42.196;24.336;2022-12-10T00:33:29;98719.66;;;9.68;96.50
26376;BME280;30544;42.196;24.336;2022-12-10T00:35:55;98717.81;;;9.57;97.06
26376;BME280;30544;42.196;24.336;2022-12-10T00:38:23;98722.44;;;9.51;96.41
26376;BME280;30544;42.196;24.336;2022-12-10T00:40:50;98725.88;;;9.75;96.73
26376;BME280;30544;42.196;24.336;2022-12-10T00:43:17;98730.94;;;9.45;96.84
26376;BME280;30544;42.196;24.336;2022-12-10T00:45:44;98717.56;;;9.75;96.65
26376;BME280;30544;42.196;24.336;2022-12-10T00:48:10;98715.25;;;9.50;96.96
26376;BME280;30544;42.196;24.336;2022-12-10T00:50:37;98709.09;;;9.65;97.01
26376;BME280;30544;42.196;24.336;2022-12-10T00:53:04;98696.31;;;9.42;97.26
26376;BME280;30544;42.196;24.336;2022-12-10T00:55:32;98699.53;;;9.56;97.48
26376;BME280;30544;42.196;24.336;2022-12-10T00:57:59;98707.03;;;9.39;98.48
26376;BME280;30544;42.196;24.336;2022-12-10T01:00:25;98712.22;;;9.52;97.95
26376;BME280;30544;42.196;24.336;2022-12-10T01:02:53;98698.25;;;9.42;98.55
26376;BME280;30544;42.196;24.336;2022-12-10T01:05:20;98695.56;;;9.30;99.06
26376;BME280;30544;42.196;24.336;2022-12-10T01:07:47;98697.59;;;9.56;99.00
26376;BME280;30544;42.196;24.336;2022-12-10T01:10:14;98702.50;;;9.49;98.19
26376;BME280;30544;42.196;24.336;2022-12-10T01:12:42;98710.84;;;9.71;97.53
26376;BME280;30544;42.196;24.336;2022-12-10T01:15:09;98716.66;;;9.53;98.81
26376;BME280;30544;42.196;24.336;2022-12-10T01:17:35;98702.25;;;9.34;99.01
26376;BME280;30544;42.196;24.336;2022-12-10T01:20:03;98710.97;;;9.43;99.15
26376;BME280;30544;42.196;24.336;2022-12-10T01:22:30;98705.34;;;9.38;99.58
26376;BME280;30544;42.196;24.336;2022-12-10T01:24:56;98696.97;;;9.32;99.12
26376;BME280;30544;42.196;24.336;2022-12-10T01:27:23;98689.25;;;9.34;100.00
26376;BME280;30544;42.196;24.336;2022-12-10T01:29:51;98680.88;;;9.29;99.01
26376;BME280;30544;42.196;24.336;2022-12-10T01:32:18;98679.00;;;9.52;98.87
26376;BME280;30544;42.196;24.336;2022-12-10T01:34:45;98676.75;;;9.49;99.23
26376;BME280;30544;42.196;24.336;2022-12-10T01:37:12;98695.81;;;9.28;100.00
26376;BME280;30544;42.196;24.336;2022-12-10T01:39:38;98683.06;;;9.27;100.00
26376;BME280;30544;42.196;24.336;2022-12-10T01:42:05;98668.97;;;9.29;100.00
26376;BME280;30544;42.196;24.336;2022-12-10T01:47:36;98670.78;;;9.40;99.79
26376;BME280;30544;42.196;24.336;2022-12-10T01:50:05;98664.59;;;9.33;98.74
26376;BME280;30544;42.196;24.336;2022-12-10T01:52:32;98670.97;;;9.17;98.86
26376;BME280;30544;42.196;24.336;2022-12-10T01:54:59;98661.66;;;9.40;99.51
26376;BME280;30544;42.196;24.336;2022-12-10T01:57:27;98657.72;;;9.19;99.18
26376;BME280;30544;42.196;24.336;2022-12-10T01:59:56;98659.25;;;9.26;99.49
26376;BME280;30544;42.196;24.336;2022-12-10T02:02:33;98662.16;;;9.20;99.15
26376;BME280;30544;42.196;24.336;2022-12-10T02:05:23;98656.22;;;9.28;99.12
26376;BME280;30544;42.196;24.336;2022-12-10T02:07:57;98653.94;;;9.42;98.66
26376;BME280;30544;42.196;24.336;2022-12-10T02:10:36;98644.00;;;9.24;99.04
26376;BME280;30544;42.196;24.336;2022-12-10T02:13:09;98659.31;;;9.31;98.04
26376;BME280;30544;42.196;24.336;2022-12-10T02:15:41;98652.59;;;9.44;97.25
26376;BME280;30544;42.196;24.336;2022-12-10T02:18:13;98649.84;;;9.44;97.66
26376;BME280;30544;42.196;24.336;2022-12-10T02:20:46;98669.81;;;9.29;97.14
26376;BME280;30544;42.196;24.336;2022-12-10T02:23:20;98660.25;;;9.20;97.31
26376;BME280;30544;42.196;24.336;2022-12-10T02:25:51;98667.31;;;9.11;98.20
26376;BME280;30544;42.196;24.336;2022-12-10T02:28:23;98664.06;;;9.53;97.04
26376;BME280;30544;42.196;24.336;2022-12-10T02:30:53;98673.47;;;9.35;97.21
26376;BME280;30544;42.196;24.336;2022-12-10T02:33:22;98676.66;;;9.44;96.82
26376;BME280;30544;42.196;24.336;2022-12-10T02:35:51;98666.00;;;9.35;97.29
26376;BME280;30544;42.196;24.336;2022-12-10T02:38:24;98674.84;;;9.32;96.26
26376;BME280;30544;42.196;24.336;2022-12-10T02:40:56;98656.63;;;9.37;95.83
26376;BME280;30544;42.196;24.336;2022-12-10T02:43:25;98650.34;;;9.41;96.58
26376;BME280;30544;42.196;24.336;2022-12-10T02:45:55;98659.91;;;9.33;95.80
26376;BME280;30544;42.196;24.336;2022-12-10T02:48:24;98655.38;;;9.44;94.92
26376;BME280;30544;42.196;24.336;2022-12-10T02:50:51;98642.16;;;9.51;96.29
26376;BME280;30544;42.196;24.336;2022-12-10T02:53:17;98635.91;;;9.39;95.93
26376;BME280;30544;42.196;24.336;2022-12-10T02:55:54;98629.91;;;9.09;95.97
26376;BME280;30544;42.196;24.336;2022-12-10T02:58:28;98644.56;;;9.43;95.54
26376;BME280;30544;42.196;24.336;2022-12-10T03:01:04;98628.28;;;9.29;96.33
26376;BME280;30544;42.196;24.336;2022-12-10T03:03:37;98623.84;;;9.28;94.96
26376;BME280;30544;42.196;24.336;2022-12-10T03:06:13;98622.53;;;9.14;95.05
26376;BME280;30544;42.196;24.336;2022-12-10T03:08:47;98627.72;;;9.11;95.66
26376;BME280;30544;42.196;24.336;2022-12-10T03:11:17;98630.50;;;9.11;96.64
26376;BME280;30544;42.196;24.336;2022-12-10T03:13:51;98631.06;;;9.29;95.73
26376;BME280;30544;42.196;24.336;2022-12-10T03:16:22;98630.47;;;9.44;95.46
26376;BME280;30544;42.196;24.336;2022-12-10T03:18:52;98649.16;;;9.37;94.20
26376;BME280;30544;42.196;24.336;2022-12-10T03:21:22;98629.78;;;9.37;95.21
26376;BME280;30544;42.196;24.336;2022-12-10T03:23:51;98623.66;;;9.35;94.58
26376;BME280;30544;42.196;24.336;2022-12-10T03:26:18;98616.09;;;9.47;94.28
26376;BME280;30544;42.196;24.336;2022-12-10T03:28:51;98618.13;;;9.35;95.94
26376;BME280;30544;42.196;24.336;2022-12-10T03:31:20;98625.34;;;9.36;95.98
26376;BME280;30544;42.196;24.336;2022-12-10T03:33:49;98608.56;;;9.43;94.99
26376;BME280;30544;42.196;24.336;2022-12-10T03:36:16;98607.75;;;9.25;96.92
26376;BME280;30544;42.196;24.336;2022-12-10T03:38:45;98599.28;;;9.32;97.18
26376;BME280;30544;42.196;24.336;2022-12-10T03:41:11;98602.94;;;9.38;95.82
26376;BME280;30544;42.196;24.336;2022-12-10T03:43:52;98612.22;;;9.26;95.99
26376;BME280;30544;42.196;24.336;2022-12-10T03:46:19;98601.38;;;9.42;95.87
26376;BME280;30544;42.196;24.336;2022-12-10T03:48:46;98592.84;;;9.26;97.29
26376;BME280;30544;42.196;24.336;2022-12-10T03:51:14;98598.38;;;9.26;97.28
26376;BME280;30544;42.196;24.336;2022-12-10T03:53:43;98599.28;;;9.54;96.20
26376;BME280;30544;42.196;24.336;2022-12-10T03:56:09;98611.09;;;9.44;95.95
26376;BME280;30544;42.196;24.336;2022-12-10T03:58:36;98616.78;;;9.38;96.55
26376;BME280;30544;42.196;24.336;2022-12-10T04:01:03;98617.22;;;9.29;96.14
26376;BME280;30544;42.196;24.336;2022-12-10T04:03:30;98611.13;;;9.27;96.77
26376;BME280;30544;42.196;24.336;2022-12-10T04:06:01;98604.22;;;9.30;97.13
26376;BME280;30544;42.196;24.336;2022-12-10T04:08:29;98598.00;;;9.40;96.68
26376;BME280;30544;42.196;24.336;2022-12-10T04:11:02;98595.50;;;9.21;96.65
26376;BME280;30544;42.196;24.336;2022-12-10T04:13:31;98579.41;;;9.18;97.22
26376;BME280;30544;42.196;24.336;2022-12-10T04:16:15;98586.63;;;9.19;96.65
26376;BME280;30544;42.196;24.336;2022-12-10T04:18:56;98599.56;;;9.14;97.66
26376;BME280;30544;42.196;24.336;2022-12-10T04:21:23;98598.00;;;9.23;98.32
26376;BME280;30544;42.196;24.336;2022-12-10T04:24:09;98612.47;;;9.25;98.23
26376;BME280;30544;42.196;24.336;2022-12-10T04:26:54;98599.34;;;9.37;97.58
26376;BME280;30544;42.196;24.336;2022-12-10T04:29:22;98598.00;;;9.40;96.64
26376;BME280;30544;42.196;24.336;2022-12-10T04:31:49;98600.34;;;9.48;96.76
26376;BME280;30544;42.196;24.336;2022-12-10T04:34:16;98605.22;;;9.41;96.96
26376;BME280;30544;42.196;24.336;2022-12-10T04:36:43;98603.03;;;9.43;97.12
26376;BME280;30544;42.196;24.336;2022-12-10T04:39:11;98611.19;;;9.32;97.50
26376;BME280;30544;42.196;24.336;2022-12-10T04:41:39;98608.94;;;9.29;97.53
26376;BME280;30544;42.196;24.336;2022-12-10T04:44:06;98606.44;;;9.50;97.09
26376;BME280;30544;42.196;24.336;2022-12-10T04:46:33;98604.72;;;9.44;97.02
26376;BME280;30544;42.196;24.336;2022-12-10T04:49:00;98600.75;;;9.40;98.12
26376;BME280;30544;42.196;24.336;2022-12-10T04:51:27;98606.84;;;9.20;97.53
26376;BME280;30544;42.196;24.336;2022-12-10T04:53:54;98610.78;;;9.24;98.55
26376;BME280;30544;42.196;24.336;2022-12-10T04:56:22;98605.97;;;9.36;97.85
26376;BME280;30544;42.196;24.336;2022-12-10T04:58:49;98609.91;;;9.23;98.55
26376;BME280;30544;42.196;24.336;2022-12-10T05:01:16;98601.19;;;9.31;98.00
26376;BME280;30544;42.196;24.336;2022-12-10T05:03:43;98609.69;;;9.25;97.66
26376;BME280;30544;42.196;24.336;2022-12-10T05:06:13;98618.00;;;9.25;99.34
26376;BME280;30544;42.196;24.336;2022-12-10T05:08:40;98607.38;;;9.39;97.97
26376;BME280;30544;42.196;24.336;2022-12-10T05:11:09;98603.97;;;9.31;97.65
26376;BME280;30544;42.196;24.336;2022-12-10T05:13:38;98610.66;;;9.35;98.91
26376;BME280;30544;42.196;24.336;2022-12-10T05:16:07;98594.94;;;9.19;98.27
26376;BME280;30544;42.196;24.336;2022-12-10T05:18:35;98590.75;;;9.00;99.48
26376;BME280;30544;42.196;24.336;2022-12-10T05:21:04;98593.50;;;9.17;98.88
26376;BME280;30544;42.196;24.336;2022-12-10T05:23:31;98591.75;;;9.27;99.13
26376;BME280;30544;42.196;24.336;2022-12-10T05:25:59;98586.78;;;9.29;98.71
26376;BME280;30544;42.196;24.336;2022-12-10T05:28:26;98584.09;;;9.34;98.38
26376;BME280;30544;42.196;24.336;2022-12-10T05:30:54;98584.88;;;9.52;98.06
26376;BME280;30544;42.196;24.336;2022-12-10T05:33:21;98598.81;;;9.40;97.79
26376;BME280;30544;42.196;24.336;2022-12-10T05:35:53;98583.97;;;9.24;98.44
26376;BME280;30544;42.196;24.336;2022-12-10T05:38:20;98587.63;;;9.30;98.52
26376;BME280;30544;42.196;24.336;2022-12-10T05:40:46;98568.56;;;9.33;97.94
26376;BME280;30544;42.196;24.336;2022-12-10T05:43:13;98564.66;;;9.29;98.41
26376;BME280;30544;42.196;24.336;2022-12-10T05:45:40;98578.75;;;9.28;98.10
26376;BME280;30544;42.196;24.336;2022-12-10T05:48:10;98585.25;;;9.39;98.45
26376;BME280;30544;42.196;24.336;2022-12-10T05:50:36;98575.81;;;9.18;98.68
26376;BME280;30544;42.196;24.336;2022-12-10T05:53:04;98578.03;;;9.38;98.31
26376;BME280;30544;42.196;24.336;2022-12-10T05:55:30;98578.28;;;9.36;98.26
26376;BME280;30544;42.196;24.336;2022-12-10T05:57:58;98568.50;;;9.28;97.28
26376;BME280;30544;42.196;24.336;2022-12-10T06:00:25;98580.81;;;9.38;98.14
26376;BME280;30544;42.196;24.336;2022-12-10T06:02:52;98576.50;;;9.47;97.16
26376;BME280;30544;42.196;24.336;2022-12-10T06:05:20;98578.88;;;9.38;97.79
26376;BME280;30544;42.196;24.336;2022-12-10T06:07:47;98588.81;;;9.17;99.06
26376;BME280;30544;42.196;24.336;2022-12-10T06:10:14;98573.59;;;9.37;98.68
26376;BME280;30544;42.196;24.336;2022-12-10T06:12:40;98583.09;;;9.41;98.23
26376;BME280;30544;42.196;24.336;2022-12-10T06:15:08;98577.53;;;9.41;98.26
26376;BME280;30544;42.196;24.336;2022-12-10T06:17:35;98592.88;;;9.48;97.48
26376;BME280;30544;42.196;24.336;2022-12-10T06:20:05;98583.47;;;9.49;97.49
26376;BME280;30544;42.196;24.336;2022-12-10T06:22:34;98593.69;;;9.49;97.79
26376;BME280;30544;42.196;24.336;2022-12-10T06:25:01;98593.75;;;9.54;97.17
26376;BME280;30544;42.196;24.336;2022-12-10T06:27:29;98579.59;;;9.28;97.64
26376;BME280;30544;42.196;24.336;2022-12-10T06:29:56;98580.81;;;9.38;98.46
26376;BME280;30544;42.196;24.336;2022-12-10T06:32:23;98576.72;;;9.23;97.98
26376;BME280;30544;42.196;24.336;2022-12-10T06:34:50;98583.50;;;9.32;98.48
26376;BME280;30544;42.196;24.336;2022-12-10T06:37:17;98583.56;;;9.38;97.23
26376;BME280;30544;42.196;24.336;2022-12-10T06:39:45;98589.91;;;9.55;96.56
26376;BME280;30544;42.196;24.336;2022-12-10T06:42:12;98580.06;;;9.64;96.38
26376;BME280;30544;42.196;24.336;2022-12-10T06:44:39;98579.66;;;9.55;96.58
26376;BME280;30544;42.196;24.336;2022-12-10T06:47:06;98592.19;;;9.80;95.75
26376;BME280;30544;42.196;24.336;2022-12-10T06:49:32;98589.13;;;10.03;95.40
26376;BME280;30544;42.196;24.336;2022-12-10T06:51:59;98581.72;;;9.87;95.58
26376;BME280;30544;42.196;24.336;2022-12-10T06:54:26;98587.25;;;9.87;95.39
26376;BME280;30544;42.196;24.336;2022-12-10T06:56:54;98591.91;;;10.03;94.95
26376;BME280;30544;42.196;24.336;2022-12-10T06:59:21;98586.97;;;9.61;95.46
26376;BME280;30544;42.196;24.336;2022-12-10T07:01:48;98595.00;;;9.63;95.18
26376;BME280;30544;42.196;24.336;2022-12-10T07:04:15;98578.13;;;9.64;93.54
26376;BME280;30544;42.196;24.336;2022-12-10T07:06:42;98590.44;;;9.95;92.36
26376;BME280;30544;42.196;24.336;2022-12-10T07:09:09;98582.69;;;9.98;91.95
26376;BME280;30544;42.196;24.336;2022-12-10T07:11:36;98584.22;;;9.88;92.38
26376;BME280;30544;42.196;24.336;2022-12-10T07:14:04;98579.28;;;10.12;92.51
26376;BME280;30544;42.196;24.336;2022-12-10T07:16:32;98567.28;;;10.29;91.96
26376;BME280;30544;42.196;24.336;2022-12-10T07:19:00;98581.78;;;10.14;91.69
26376;BME280;30544;42.196;24.336;2022-12-10T07:21:31;98571.75;;;10.08;92.37
26376;BME280;30544;42.196;24.336;2022-12-10T07:24:00;98575.03;;;10.27;91.58
26376;BME280;30544;42.196;24.336;2022-12-10T07:26:29;98571.41;;;10.26;92.02
26376;BME280;30544;42.196;24.336;2022-12-10T07:28:58;98584.78;;;10.34;92.09
26376;BME280;30544;42.196;24.336;2022-12-10T07:31:26;98566.09;;;10.51;91.49
26376;BME280;30544;42.196;24.336;2022-12-10T07:33:54;98556.16;;;10.55;90.23
26376;BME280;30544;42.196;24.336;2022-12-10T07:36:22;98560.03;;;10.54;90.50
26376;BME280;30544;42.196;24.336;2022-12-10T07:38:49;98560.34;;;10.58;90.45
26376;BME280;30544;42.196;24.336;2022-12-10T07:41:17;98555.81;;;10.47;90.69
26376;BME280;30544;42.196;24.336;2022-12-10T07:43:44;98559.56;;;10.95;89.90
26376;BME280;30544;42.196;24.336;2022-12-10T07:46:13;98567.66;;;10.69;90.17
26376;BME280;30544;42.196;24.336;2022-12-10T07:48:43;98549.44;;;10.78;92.17
26376;BME280;30544;42.196;24.336;2022-12-10T07:51:11;98563.44;;;10.94;90.43
26376;BME280;30544;42.196;24.336;2022-12-10T07:53:38;98564.53;;;10.61;91.03
26376;BME280;30544;42.196;24.336;2022-12-10T07:56:05;98565.41;;;10.98;89.16
26376;BME280;30544;42.196;24.336;2022-12-10T07:58:32;98569.28;;;10.97;89.82
26376;BME280;30544;42.196;24.336;2022-12-10T08:00:59;98571.34;;;11.12;87.70
26376;BME280;30544;42.196;24.336;2022-12-10T08:03:31;98567.31;;;10.93;88.92
26376;BME280;30544;42.196;24.336;2022-12-10T08:06:03;98570.69;;;11.00;87.77
26376;BME280;30544;42.196;24.336;2022-12-10T08:08:32;98565.56;;;10.87;89.35
26376;BME280;30544;42.196;24.336;2022-12-10T08:10:59;98563.38;;;10.89;89.38
26376;BME280;30544;42.196;24.336;2022-12-10T08:13:27;98555.25;;;10.77;89.95
26376;BME280;30544;42.196;24.336;2022-12-10T08:15:53;98558.19;;;10.97;90.06
26376;BME280;30544;42.196;24.336;2022-12-10T08:18:20;98552.09;;;11.00;89.37
26376;BME280;30544;42.196;24.336;2022-12-10T08:20:47;98539.97;;;11.11;89.27
26376;BME280;30544;42.196;24.336;2022-12-10T08:23:18;98534.63;;;11.05;89.89
26376;BME280;30544;42.196;24.336;2022-12-10T08:25:45;98525.47;;;11.04;89.13
26376;BME280;30544;42.196;24.336;2022-12-10T08:28:11;98522.69;;;10.99;89.43
26376;BME280;30544;42.196;24.336;2022-12-10T08:30:38;98529.97;;;11.10;88.83
26376;BME280;30544;42.196;24.336;2022-12-10T08:33:05;98541.25;;;10.99;88.96
26376;BME280;30544;42.196;24.336;2022-12-10T08:35:31;98548.34;;;11.22;87.96
26376;BME280;30544;42.196;24.336;2022-12-10T08:37:58;98543.09;;;11.25;89.48
26376;BME280;30544;42.196;24.336;2022-12-10T08:40:26;98537.81;;;11.24;88.22
26376;BME280;30544;42.196;24.336;2022-12-10T08:42:53;98542.31;;;11.35;88.30
26376;BME280;30544;42.196;24.336;2022-12-10T08:45:20;98545.34;;;11.28;86.88
26376;BME280;30544;42.196;24.336;2022-12-10T08:47:47;98539.69;;;11.13;86.10
26376;BME280;30544;42.196;24.336;2022-12-10T08:50:13;98534.28;;;11.33;86.45
26376;BME280;30544;42.196;24.336;2022-12-10T08:52:40;98531.78;;;11.42;85.99
26376;BME280;30544;42.196;24.336;2022-12-10T08:55:08;98533.41;;;11.80;84.61
26376;BME280;30544;42.196;24.336;2022-12-10T08:57:36;98538.34;;;11.73;85.97
26376;BME280;30544;42.196;24.336;2022-12-10T09:00:04;98526.13;;;11.74;86.20
26376;BME280;30544;42.196;24.336;2022-12-10T09:02:31;98525.41;;;12.04;83.99
26376;BME280;30544;42.196;24.336;2022-12-10T09:04:58;98518.41;;;11.86;85.33
26376;BME280;30544;42.196;24.336;2022-12-10T09:07:26;98511.78;;;11.97;84.71
26376;BME280;30544;42.196;24.336;2022-12-10T09:09:54;98503.75;;;11.96;84.13
26376;BME280;30544;42.196;24.336;2022-12-10T09:12:21;98488.63;;;11.71;85.37
26376;BME280;30544;42.196;24.336;2022-12-10T09:14:49;98472.34;;;12.05;84.38
26376;BME280;30544;42.196;24.336;2022-12-10T09:17:16;98467.56;;;11.81;84.43
26376;BME280;30544;42.196;24.336;2022-12-10T09:19:42;98469.81;;;11.89;85.28
26376;BME280;30544;42.196;24.336;2022-12-10T09:22:09;98484.81;;;11.88;85.67
26376;BME280;30544;42.196;24.336;2022-12-10T09:24:36;98474.53;;;11.88;85.76
26376;BME280;30544;42.196;24.336;2022-12-10T09:27:03;98475.13;;;11.95;85.17
26376;BME280;30544;42.196;24.336;2022-12-10T09:29:30;98474.53;;;11.88;85.45
26376;BME280;30544;42.196;24.336;2022-12-10T09:31:58;98471.63;;;11.58;88.20
26376;BME280;30544;42.196;24.336;2022-12-10T09:34:24;98466.09;;;11.68;88.31
26376;BME280;30544;42.196;24.336;2022-12-10T09:36:51;98464.00;;;11.95;86.86
26376;BME280;30544;42.196;24.336;2022-12-10T09:39:18;98432.06;;;12.18;85.36
26376;BME280;30544;42.196;24.336;2022-12-10T09:41:56;98418.16;;;12.54;84.42
26376;BME280;30544;42.196;24.336;2022-12-10T09:44:36;98412.31;;;12.65;83.40
26376;BME280;30544;42.196;24.336;2022-12-10T09:47:08;98419.75;;;12.95;81.45
26376;BME280;30544;42.196;24.336;2022-12-10T09:49:42;98410.84;;;12.99;81.57
26376;BME280;30544;42.196;24.336;2022-12-10T09:52:17;98406.88;;;13.30;80.62
26376;BME280;30544;42.196;24.336;2022-12-10T09:54:48;98398.56;;;13.69;79.23
26376;BME280;30544;42.196;24.336;2022-12-10T09:57:20;98401.22;;;13.45;79.34
26376;BME280;30544;42.196;24.336;2022-12-10T09:59:49;98394.56;;;13.85;78.07
26376;BME280;30544;42.196;24.336;2022-12-10T10:02:23;98387.03;;;13.86;78.07
26376;BME280;30544;42.196;24.336;2022-12-10T10:04:51;98382.63;;;13.80;76.42
26376;BME280;30544;42.196;24.336;2022-12-10T10:07:20;98377.91;;;13.80;76.63
26376;BME280;30544;42.196;24.336;2022-12-10T10:09:48;98365.41;;;14.07;75.94
26376;BME280;30544;42.196;24.336;2022-12-10T10:12:17;98365.41;;;14.46;74.98
26376;BME280;30544;42.196;24.336;2022-12-10T10:14:44;98354.56;;;14.05;75.58
26376;BME280;30544;42.196;24.336;2022-12-10T10:17:16;98349.09;;;14.24;74.60
26376;BME280;30544;42.196;24.336;2022-12-10T10:19:46;98345.69;;;14.32;73.92
26376;BME280;30544;42.196;24.336;2022-12-10T10:22:14;98336.34;;;13.84;75.24
26376;BME280;30544;42.196;24.336;2022-12-10T10:24:44;98331.19;;;14.01;76.54
26376;BME280;30544;42.196;24.336;2022-12-10T10:27:14;98342.28;;;13.72;77.13
26376;BME280;30544;42.196;24.336;2022-12-10T10:29:43;98347.97;;;13.96;76.48
26376;BME280;30544;42.196;24.336;2022-12-10T10:32:13;98341.91;;;13.84;76.18
26376;BME280;30544;42.196;24.336;2022-12-10T10:34:41;98330.06;;;14.02;76.51
26376;BME280;30544;42.196;24.336;2022-12-10T10:37:15;98327.16;;;13.44;78.88
26376;BME280;30544;42.196;24.336;2022-12-10T10:39:46;98316.59;;;13.80;78.79
26376;BME280;30544;42.196;24.336;2022-12-10T10:42:24;98320.03;;;14.01;78.37
26376;BME280;30544;42.196;24.336;2022-12-10T10:44:52;98306.75;;;13.88;77.79
26376;BME280;30544;42.196;24.336;2022-12-10T10:47:27;98304.50;;;13.95;78.77
26376;BME280;30544;42.196;24.336;2022-12-10T10:49:54;98296.66;;;13.97;78.04
26376;BME280;30544;42.196;24.336;2022-12-10T10:52:22;98302.75;;;13.65;80.10
26376;BME280;30544;42.196;24.336;2022-12-10T10:54:53;98311.56;;;13.38;80.82
26376;BME280;30544;42.196;24.336;2022-12-10T10:57:25;98309.84;;;13.47;81.20
26376;BME280;30544;42.196;24.336;2022-12-10T10:59:56;98303.00;;;13.30;82.21
26376;BME280;30544;42.196;24.336;2022-12-10T11:02:29;98284.06;;;13.27;82.49
26376;BME280;30544;42.196;24.336;2022-12-10T11:04:57;98296.59;;;13.24;82.65
26376;BME280;30544;42.196;24.336;2022-12-10T11:07:33;98298.06;;;13.61;81.69
26376;BME280;30544;42.196;24.336;2022-12-10T11:10:00;98288.16;;;13.44;81.94
26376;BME280;30544;42.196;24.336;2022-12-10T11:12:35;98293.31;;;13.12;83.36
26376;BME280;30544;42.196;24.336;2022-12-10T11:15:27;98295.06;;;12.92;83.44
26376;BME280;30544;42.196;24.336;2022-12-10T11:17:55;98294.41;;;13.21;81.54
26376;BME280;30544;42.196;24.336;2022-12-10T11:20:24;98294.25;;;12.87;83.47
26376;BME280;30544;42.196;24.336;2022-12-10T11:22:54;98297.53;;;13.04;83.80
26376;BME280;30544;42.196;24.336;2022-12-10T11:25:31;98284.44;;;13.05;83.53
26376;BME280;30544;42.196;24.336;2022-12-10T11:28:10;98278.84;;;13.59;81.73
26376;BME280;30544;42.196;24.336;2022-12-10T11:30:48;98280.78;;;13.64;81.06
26376;BME280;30544;42.196;24.336;2022-12-10T11:33:25;98274.63;;;13.67;79.93
26376;BME280;30544;42.196;24.336;2022-12-10T11:35:59;98270.03;;;13.81;78.92
26376;BME280;30544;42.196;24.336;2022-12-10T11:38:39;98266.28;;;14.25;78.28
26376;BME280;30544;42.196;24.336;2022-12-10T11:41:18;98261.34;;;13.88;78.40
26376;BME280;30544;42.196;24.336;2022-12-10T11:44:01;98266.38;;;13.85;78.19
26376;BME280;30544;42.196;24.336;2022-12-10T11:46:44;98258.72;;;14.01;78.51
26376;BME280;30544;42.196;24.336;2022-12-10T11:49:23;98248.13;;;14.27;77.80
26376;BME280;30544;42.196;24.336;2022-12-10T11:51:56;98254.88;;;14.21;77.64
26376;BME280;30544;42.196;24.336;2022-12-10T11:54:49;98231.28;;;14.13;77.99
26376;BME280;30544;42.196;24.336;2022-12-10T11:57:26;98228.13;;;13.91;78.33
26376;BME280;30544;42.196;24.336;2022-12-10T12:00:00;98226.22;;;13.87;78.31
26376;BME280;30544;42.196;24.336;2022-12-10T12:05:51;98198.84;;;13.94;78.38
26376;BME280;30544;42.196;24.336;2022-12-10T12:08:30;98194.31;;;14.27;77.46
26376;BME280;30544;42.196;24.336;2022-12-10T12:11:12;98197.84;;;13.84;77.96
26376;BME280;30544;42.196;24.336;2022-12-10T12:13:51;98200.47;;;13.71;78.88
26376;BME280;30544;42.196;24.336;2022-12-10T12:16:24;98193.16;;;13.80;78.71
26376;BME280;30544;42.196;24.336;2022-12-10T12:18:57;98209.22;;;13.88;78.14
26376;BME280;30544;42.196;24.336;2022-12-10T12:21:25;98220.28;;;13.98;77.76
26376;BME280;30544;42.196;24.336;2022-12-10T12:23:54;98214.84;;;14.12;76.75
26376;BME280;30544;42.196;24.336;2022-12-10T12:26:27;98205.53;;;14.22;76.44
26376;BME280;30544;42.196;24.336;2022-12-10T12:28:58;98208.28;;;13.69;77.74
26376;BME280;30544;42.196;24.336;2022-12-10T12:31:31;98213.91;;;13.64;78.05
26376;BME280;30544;42.196;24.336;2022-12-10T12:34:04;98213.88;;;13.98;76.79
26376;BME280;30544;42.196;24.336;2022-12-10T12:36:33;98203.19;;;13.76;77.63
26376;BME280;30544;42.196;24.336;2022-12-10T12:39:06;98200.16;;;14.01;76.32
26376;BME280;30544;42.196;24.336;2022-12-10T12:41:43;98204.91;;;14.01;77.09
26376;BME280;30544;42.196;24.336;2022-12-10T12:44:17;98211.59;;;13.71;77.63
26376;BME280;30544;42.196;24.336;2022-12-10T12:46:47;98208.88;;;13.66;77.85
26376;BME280;30544;42.196;24.336;2022-12-10T12:49:20;98189.38;;;13.95;77.82
26376;BME280;30544;42.196;24.336;2022-12-10T12:51:53;98182.91;;;13.70;77.46
26376;BME280;30544;42.196;24.336;2022-12-10T12:54:22;98182.44;;;13.63;78.47
26376;BME280;30544;42.196;24.336;2022-12-10T12:56:59;98183.41;;;13.77;78.17
26376;BME280;30544;42.196;24.336;2022-12-10T12:59:38;98182.81;;;13.80;79.00
26376;BME280;30544;42.196;24.336;2022-12-10T13:02:17;98184.78;;;13.80;78.26
26376;BME280;30544;42.196;24.336;2022-12-10T13:04:45;98181.66;;;13.87;78.04
26376;BME280;30544;42.196;24.336;2022-12-10T13:07:28;98177.13;;;13.91;77.32
26376;BME280;30544;42.196;24.336;2022-12-10T13:15:47;98172.50;;;13.52;79.46
26376;BME280;30544;42.196;24.336;2022-12-10T13:18:33;98156.47;;;13.68;79.45
26376;BME280;30544;42.196;24.336;2022-12-10T13:21:26;98159.19;;;13.73;78.80